Time;durP1;ratioP1;P1;durP2;ratioP2;P2;SDS_P1;SDS_P2;PMS_P1;PMS_P2;Temp;Humidity;BMP_temperature;BMP_pressure;BME280_temperature;BME280_humidity;BME280_pressure;Samples;Min_cycle;Max_cycle;Signal;HPM_P1;HPM_P2
2023/01/17 05:01:56;;;;;;;0.60;0.60;;;4.10;99.70;;;;;;8686319;23;20266;-90
2023/01/17 05:05:42;;;;;;;0.47;0.43;;;4.20;99.40;;;;;;7686023;29;20198;-90
2023/01/17 05:09:28;;;;;;;1.13;0.67;;;4.20;99.40;;;;;;7685571;29;20186;-91
2023/01/17 05:13:14;;;;;;;0.70;0.53;;;4.20;99.40;;;;;;7662356;29;20253;-91
2023/01/17 05:25:31;;;;;;;3.47;0.77;;;4.20;99.30;;;;;;7657112;29;20222;-88
2023/01/17 05:29:16;;;;;;;0.90;0.60;;;4.10;99.40;;;;;;7658351;29;20186;-88
2023/01/17 05:33:02;;;;;;;0.60;0.60;;;4.20;98.90;;;;;;7656330;29;20265;-87
2023/01/17 05:36:48;;;;;;;0.60;0.60;;;4.20;98.60;;;;;;7717831;23;20589;-88
2023/01/17 05:40:34;;;;;;;1.10;0.60;;;4.20;98.70;;;;;;7731574;28;20213;-88
2023/01/17 05:44:19;;;;;;;0.50;0.50;;;4.20;98.70;;;;;;7715472;28;20673;-88
2023/01/17 05:48:05;;;;;;;0.50;0.50;;;4.10;98.80;;;;;;7730179;22;20265;-91
2023/01/17 05:51:51;;;;;;;0.60;0.60;;;4.10;99.00;;;;;;7692571;28;20735;-90
2023/01/17 05:55:37;;;;;;;0.63;0.53;;;4.10;98.90;;;;;;7681773;28;20228;-90
2023/01/17 05:59:23;;;;;;;2.07;0.70;;;4.00;98.80;;;;;;7699737;28;20253;-90
2023/01/17 06:03:10;;;;;;;1.60;0.70;;;4.20;98.90;;;;;;7718980;28;20231;-90
2023/01/17 06:06:56;;;;;;;0.77;0.50;;;4.10;99.10;;;;;;7704803;28;20215;-90
2023/01/17 06:10:42;;;;;;;4.47;1.50;;;4.10;98.90;;;;;;7702546;28;20197;-89
2023/01/17 06:14:28;;;;;;;0.90;0.90;;;4.20;98.80;;;;;;7696735;28;20197;-90
2023/01/17 06:18:15;;;;;;;0.77;0.70;;;4.00;98.80;;;;;;7713053;28;20710;-90
2023/01/17 06:22:03;;;;;;;0.80;0.80;;;4.10;98.80;;;;;;7690574;28;20693;-90
2023/01/17 06:25:49;;;;;;;1.20;0.90;;;4.00;98.80;;;;;;7697273;28;20209;-90
2023/01/17 06:29:35;;;;;;;0.70;0.50;;;4.00;99.00;;;;;;7705995;28;20197;-89
2023/01/17 06:33:22;;;;;;;1.23;0.70;;;4.00;99.20;;;;;;7699101;28;20203;-90
2023/01/17 06:37:07;;;;;;;0.90;0.70;;;4.00;99.50;;;;;;7687616;28;20228;-90
2023/01/17 06:40:53;;;;;;;1.83;0.80;;;3.90;99.40;;;;;;7710002;28;20213;-90
2023/01/17 06:44:39;;;;;;;2.07;0.60;;;3.90;99.50;;;;;;7713402;28;20229;-90
2023/01/17 06:48:25;;;;;;;0.80;0.80;;;3.90;99.70;;;;;;7713136;28;20220;-89
2023/01/17 06:52:10;;;;;;;1.50;0.80;;;3.80;99.80;;;;;;7694500;28;20569;-90
2023/01/17 06:55:56;;;;;;;0.70;0.70;;;3.80;99.70;;;;;;7701678;28;20485;-90
2023/01/17 06:59:42;;;;;;;1.53;0.70;;;3.80;99.90;;;;;;7696639;28;20267;-90
2023/01/17 07:03:28;;;;;;;1.27;0.80;;;3.70;99.70;;;;;;7689937;28;20663;-90
2023/01/17 07:07:13;;;;;;;0.70;0.70;;;3.70;99.90;;;;;;7702375;28;20311;-90
2023/01/17 07:11:01;;;;;;;1.33;0.90;;;3.80;99.90;;;;;;7700792;28;20283;-90
2023/01/17 07:14:47;;;;;;;1.17;0.73;;;3.80;99.90;;;;;;7694643;28;20614;-89
2023/01/17 07:18:33;;;;;;;1.27;0.93;;;3.80;99.90;;;;;;7697733;28;20212;-89
2023/01/17 07:22:19;;;;;;;2.83;1.00;;;3.80;99.90;;;;;;7698504;28;20220;-90
2023/01/17 07:26:05;;;;;;;0.70;0.70;;;3.70;99.90;;;;;;7698534;28;20240;-90
2023/01/17 07:29:50;;;;;;;1.47;0.87;;;3.90;99.90;;;;;;7698322;28;20196;-90
2023/01/17 07:33:36;;;;;;;1.20;0.93;;;3.60;99.60;;;;;;7711449;28;20205;-90
2023/01/17 07:37:22;;;;;;;1.30;1.00;;;3.80;99.70;;;;;;7703533;28;20216;-90
2023/01/17 07:41:07;;;;;;;3.60;0.97;;;3.70;99.90;;;;;;7690591;28;20228;-90
2023/01/17 07:44:53;;;;;;;1.13;0.70;;;3.70;99.90;;;;;;7697546;28;20485;-90
2023/01/17 07:48:38;;;;;;;1.20;0.80;;;3.50;99.60;;;;;;7689942;28;20225;-90
2023/01/17 07:52:24;;;;;;;1.00;0.70;;;3.60;99.50;;;;;;7700421;28;20204;-90
2023/01/17 07:56:10;;;;;;;0.93;0.90;;;3.60;99.70;;;;;;7704108;28;20247;-89
2023/01/17 07:59:55;;;;;;;3.07;1.60;;;3.60;99.70;;;;;;7711741;28;20367;-90
2023/01/17 08:03:42;;;;;;;4.07;2.57;;;3.50;99.80;;;;;;7703635;28;20396;-90
2023/01/17 08:07:28;;;;;;;2.73;1.50;;;3.60;99.90;;;;;;7704278;28;20567;-90
2023/01/17 08:11:14;;;;;;;2.97;1.20;;;3.50;99.50;;;;;;7702137;28;20193;-89
2023/01/17 08:14:59;;;;;;;2.17;1.00;;;3.50;99.70;;;;;;7697631;28;20201;-90
2023/01/17 08:18:45;;;;;;;3.97;1.67;;;3.40;99.30;;;;;;7713849;28;20567;-90
2023/01/17 08:22:31;;;;;;;2.77;0.90;;;3.40;99.50;;;;;;7700635;28;20241;-89
2023/01/17 08:26:21;;;;;;;2.73;1.37;;;3.40;99.20;;;;;;7704656;28;20201;-89
2023/01/17 08:30:07;;;;;;;0.80;0.80;;;3.40;99.30;;;;;;7712345;28;20529;-90
2023/01/17 08:33:53;;;;;;;1.63;1.10;;;3.40;99.40;;;;;;7702028;28;20701;-90
2023/01/17 08:37:39;;;;;;;2.23;1.50;;;3.40;99.10;;;;;;7699930;28;20566;-91
2023/01/17 08:41:26;;;;;;;1.10;1.00;;;3.40;99.20;;;;;;7693364;28;20601;-90
2023/01/17 08:45:13;;;;;;;2.17;1.20;;;3.30;99.30;;;;;;7696896;28;20247;-90
2023/01/17 08:49:01;;;;;;;3.40;1.80;;;3.50;99.20;;;;;;7696945;28;20196;-90
2023/01/17 08:52:47;;;;;;;1.63;1.30;;;3.40;99.60;;;;;;7705561;28;20212;-90
2023/01/17 08:56:34;;;;;;;2.40;0.77;;;3.50;99.10;;;;;;7701832;28;20209;-90
2023/01/17 09:00:20;;;;;;;2.93;1.30;;;3.50;98.80;;;;;;7700228;28;20311;-90
2023/01/17 09:04:07;;;;;;;2.00;1.30;;;3.50;98.80;;;;;;7709306;28;20283;-90
2023/01/17 09:07:55;;;;;;;1.20;1.10;;;3.40;99.20;;;;;;7706692;28;20205;-90
2023/01/17 09:11:40;;;;;;;1.90;1.40;;;3.40;98.90;;;;;;7711433;28;20698;-90
2023/01/17 09:15:26;;;;;;;2.77;1.10;;;3.40;99.20;;;;;;7702181;28;20355;-89
2023/01/17 09:19:12;;;;;;;2.37;0.90;;;3.40;99.40;;;;;;7698283;28;20876;-90
2023/01/17 09:23:01;;;;;;;1.80;1.10;;;3.40;99.10;;;;;;7699905;28;20189;-89
2023/01/17 09:26:47;;;;;;;2.80;1.30;;;3.40;99.20;;;;;;7709118;28;20237;-90
2023/01/17 09:30:32;;;;;;;1.40;0.93;;;3.50;99.30;;;;;;7706802;28;20189;-90
2023/01/17 09:34:18;;;;;;;7.13;4.33;;;3.70;98.60;;;;;;7716535;28;20256;-89
2023/01/17 09:38:03;;;;;;;2.30;2.07;;;3.80;98.60;;;;;;7715452;28;20217;-90
2023/01/17 09:42:01;;;;;;;1.93;1.20;;;3.80;98.00;;;;;;7715633;28;20219;-90
2023/01/17 09:45:47;;;;;;;2.37;1.30;;;3.90;96.90;;;;;;7714786;28;20226;-90
2023/01/17 09:49:40;;;;;;;1.03;0.93;;;3.80;97.20;;;;;;7700010;28;20193;-91
2023/01/17 09:53:30;;;;;;;1.47;1.10;;;3.80;97.10;;;;;;7688165;28;20237;-90
2023/01/17 09:57:30;;;;;;;1.27;1.10;;;3.70;97.20;;;;;;7706059;28;20227;-91
2023/01/17 10:01:32;;;;;;;1.93;1.10;;;3.70;96.90;;;;;;7711219;28;20742;-91
2023/01/17 10:05:42;;;;;;;4.13;1.40;;;3.80;96.90;;;;;;7688407;28;20232;-90
2023/01/17 10:09:37;;;;;;;1.53;1.10;;;4.00;96.40;;;;;;7672867;28;20664;-90
2023/01/17 10:13:38;;;;;;;3.43;1.83;;;4.00;95.70;;;;;;7673277;29;20261;-91
2023/01/17 10:17:29;;;;;;;26.03;11.20;;;4.00;95.60;;;;;;7672848;28;20206;-91
2023/01/17 10:21:57;;;;;;;40.73;17.43;;;4.00;95.10;;;;;;7677938;29;20782;-91
2023/01/17 10:25:53;;;;;;;67.03;42.73;;;4.00;94.20;;;;;;7692004;28;20204;-91
2023/01/17 10:29:40;;;;;;;2.07;1.37;;;4.00;94.30;;;;;;7710919;28;20188;-91
2023/01/17 10:33:36;;;;;;;4.30;1.43;;;4.00;94.50;;;;;;7715751;28;20200;-91
2023/01/17 10:37:35;;;;;;;1.40;1.03;;;4.10;94.50;;;;;;7701919;28;20233;-92
2023/01/17 10:41:28;;;;;;;2.30;1.33;;;4.10;94.20;;;;;;7686193;29;20212;-91
2023/01/17 10:45:42;;;;;;;13.07;0.90;;;4.00;93.20;;;;;;7685959;28;20705;-92
2023/01/17 10:49:28;;;;;;;2.60;1.30;;;3.90;93.70;;;;;;7684757;28;20197;-91
2023/01/17 10:53:35;;;;;;;1.30;1.10;;;3.90;93.20;;;;;;7707342;28;20196;-91
2023/01/17 10:57:24;;;;;;;1.10;0.90;;;3.90;93.30;;;;;;7715990;28;20248;-91
2023/01/17 11:01:20;;;;;;;1.03;0.93;;;3.80;92.80;;;;;;7686615;28;20221;-90
2023/01/17 11:05:24;;;;;;;1.63;1.40;;;3.80;93.00;;;;;;7713787;28;20233;-90
2023/01/17 11:09:11;;;;;;;5.20;1.00;;;3.80;93.40;;;;;;7696065;28;20213;-91
2023/01/17 11:12:57;;;;;;;1.87;1.10;;;3.80;93.40;;;;;;7690107;28;20236;-90
2023/01/17 11:16:43;;;;;;;1.23;0.83;;;3.80;93.40;;;;;;7690625;28;20217;-91
2023/01/17 11:20:33;;;;;;;2.67;1.03;;;3.70;93.40;;;;;;7683170;28;20217;-92
2023/01/17 11:24:27;;;;;;;2.57;1.17;;;3.90;93.20;;;;;;7682959;28;20241;-91
2023/01/17 11:28:29;;;;;;;2.97;1.00;;;3.90;93.50;;;;;;7679039;28;20264;-90
2023/01/17 11:32:29;;;;;;;2.33;1.00;;;3.90;92.90;;;;;;7714787;28;20201;-91
2023/01/17 11:36:28;;;;;;;1.10;0.90;;;3.70;93.20;;;;;;7691507;28;20213;-91
2023/01/17 11:40:14;;;;;;;1.70;1.03;;;3.90;93.30;;;;;;7683345;28;20224;-91
2023/01/17 11:44:01;;;;;;;2.50;1.00;;;4.00;93.30;;;;;;7703854;28;20185;-91
2023/01/17 11:47:46;;;;;;;1.40;1.00;;;4.00;92.80;;;;;;7744800;23;20240;-88
2023/01/17 11:51:40;;;;;;;1.97;1.07;;;4.00;92.30;;;;;;7731311;28;20246;-90
2023/01/17 11:55:26;;;;;;;1.67;0.90;;;4.00;92.90;;;;;;7734703;28;20211;-89
2023/01/17 11:59:33;;;;;;;2.30;0.97;;;4.00;92.30;;;;;;7727013;28;20228;-89
2023/01/17 12:03:51;;;;;;;1.60;0.80;;;4.10;91.60;;;;;;7727721;28;20193;-86
2023/01/17 12:08:06;;;;;;;1.53;0.80;;;4.10;91.00;;;;;;7625418;29;20583;-86
2023/01/17 12:16:44;;;;;;;1.03;0.70;;;4.30;90.30;;;;;;7626421;29;20347;-87
2023/01/17 12:20:43;;;;;;;2.73;1.23;;;4.20;89.40;;;;;;7636755;29;20703;-89
2023/01/17 12:24:48;;;;;;;2.40;1.30;;;4.30;90.00;;;;;;7633623;29;20664;-89
2023/01/17 12:29:04;;;;;;;1.27;0.90;;;4.40;90.30;;;;;;7610261;29;20238;-89
2023/01/17 12:33:20;;;;;;;1.53;1.00;;;4.40;90.10;;;;;;7641317;29;20332;-89
2023/01/17 12:37:28;;;;;;;1.20;1.10;;;4.40;90.20;;;;;;7611531;29;20232;-87
2023/01/17 12:41:23;;;;;;;1.67;1.10;;;4.40;89.20;;;;;;7643636;29;20673;-89
2023/01/17 12:45:15;;;;;;;2.00;1.13;;;4.40;89.70;;;;;;7733376;28;20187;-88
2023/01/17 12:49:27;;;;;;;3.63;1.90;;;4.50;89.40;;;;;;7734566;28;20200;-90
2023/01/17 12:53:37;;;;;;;3.63;1.40;;;4.60;89.40;;;;;;7738677;28;20187;-88
2023/01/17 12:57:38;;;;;;;0.97;0.90;;;4.70;90.00;;;;;;7736801;28;20215;-89
2023/01/17 13:01:28;;;;;;;1.50;1.00;;;4.70;89.30;;;;;;7730667;28;20212;-89
2023/01/17 13:05:22;;;;;;;3.43;1.53;;;4.60;88.90;;;;;;7730619;28;20189;-89
2023/01/17 13:09:12;;;;;;;1.83;1.00;;;4.60;89.90;;;;;;7715995;28;20189;-89
2023/01/17 13:13:09;;;;;;;2.57;1.20;;;4.60;89.20;;;;;;7713217;28;20247;-88
2023/01/17 13:17:03;;;;;;;2.43;1.17;;;4.50;87.90;;;;;;7733837;28;20207;-88
2023/01/17 13:21:09;;;;;;;2.07;1.23;;;4.60;89.50;;;;;;7742628;28;20220;-88
2023/01/17 13:24:59;;;;;;;1.30;1.03;;;4.50;88.60;;;;;;7735371;28;20690;-88
2023/01/17 13:29:02;;;;;;;2.07;1.00;;;4.40;88.60;;;;;;7741065;28;20203;-89
2023/01/17 13:33:07;;;;;;;1.93;1.00;;;4.50;88.50;;;;;;7746118;28;20184;-88
2023/01/17 13:37:01;;;;;;;1.97;1.17;;;4.50;88.30;;;;;;7729895;28;20213;-88
2023/01/17 13:40:54;;;;;;;1.33;1.20;;;4.50;88.70;;;;;;7726765;28;20224;-87
2023/01/17 13:44:39;;;;;;;2.70;1.03;;;4.60;88.70;;;;;;7731671;28;20600;-88
2023/01/17 13:48:31;;;;;;;2.13;1.50;;;4.70;88.30;;;;;;7738790;28;20223;-88
2023/01/17 13:52:19;;;;;;;2.80;1.70;;;4.60;89.00;;;;;;7746687;28;20619;-89
2023/01/17 13:56:14;;;;;;;2.07;1.30;;;4.60;90.10;;;;;;7746422;28;20799;-89
2023/01/17 14:00:25;;;;;;;2.60;1.20;;;4.60;90.20;;;;;;7745669;28;20268;-87
2023/01/17 14:04:11;;;;;;;1.57;1.27;;;4.50;89.20;;;;;;7745591;28;20187;-90
2023/01/17 14:08:20;;;;;;;2.60;1.60;;;4.50;90.00;;;;;;7744884;28;20442;-89
2023/01/17 14:12:25;;;;;;;2.13;1.50;;;4.50;90.10;;;;;;7744987;28;20736;-88
2023/01/17 14:16:20;;;;;;;4.83;3.27;;;4.40;90.10;;;;;;7745184;28;20755;-89
2023/01/17 14:20:08;;;;;;;8.17;4.40;;;4.40;90.20;;;;;;7745399;28;20226;-89
2023/01/17 14:23:54;;;;;;;6.30;3.13;;;4.40;90.00;;;;;;7745934;28;20198;-86
2023/01/17 14:27:48;;;;;;;5.97;2.80;;;4.30;90.60;;;;;;7745197;28;20302;-90
2023/01/17 14:31:34;;;;;;;2.77;1.20;;;4.30;90.40;;;;;;7744934;28;20196;-88
2023/01/17 14:35:21;;;;;;;3.80;1.77;;;4.30;90.90;;;;;;7744144;28;20239;-88
2023/01/17 14:39:21;;;;;;;2.10;1.70;;;4.30;90.80;;;;;;7743297;28;20695;-87
2023/01/17 14:43:14;;;;;;;3.87;1.50;;;4.20;90.70;;;;;;7744427;28;20676;-88
2023/01/17 14:47:00;;;;;;;3.10;2.07;;;4.30;91.30;;;;;;7743506;28;20472;-89
2023/01/17 14:50:47;;;;;;;2.30;1.60;;;4.40;91.80;;;;;;7744184;28;20277;-88
2023/01/17 14:54:35;;;;;;;4.20;1.70;;;4.30;92.00;;;;;;7741862;28;20224;-91
2023/01/17 14:58:28;;;;;;;2.83;1.57;;;4.40;92.50;;;;;;7710536;28;20640;-88
2023/01/17 15:02:17;;;;;;;20.93;7.53;;;4.30;93.20;;;;;;7706113;28;20268;-89
2023/01/17 15:06:20;;;;;;;33.57;11.37;;;4.30;93.10;;;;;;7702113;28;20220;-88
2023/01/17 15:10:11;;;;;;;26.67;9.43;;;4.20;93.70;;;;;;7720604;28;20272;-89
2023/01/17 15:14:04;;;;;;;23.77;7.87;;;4.30;94.00;;;;;;7735294;28;20180;-85
2023/01/17 15:17:52;;;;;;;28.97;10.13;;;4.30;94.40;;;;;;7750520;28;20221;-85
2023/01/17 15:21:41;;;;;;;20.93;9.40;;;4.20;94.80;;;;;;7766109;28;20237;-89
2023/01/17 15:25:27;;;;;;;17.23;7.17;;;4.30;95.10;;;;;;7715083;28;20220;-88
2023/01/17 15:29:24;;;;;;;15.73;7.43;;;4.10;95.40;;;;;;7713610;28;20192;-87
2023/01/17 15:33:16;;;;;;;19.20;9.53;;;4.20;96.20;;;;;;7726992;28;20191;-88
2023/01/17 15:37:04;;;;;;;17.17;9.10;;;4.10;96.20;;;;;;7724236;28;20215;-88
2023/01/17 15:40:50;;;;;;;15.83;8.63;;;4.10;96.50;;;;;;7710780;28;20233;-88
2023/01/17 15:44:40;;;;;;;11.67;6.30;;;4.20;97.10;;;;;;7709792;28;20224;-87
2023/01/17 15:48:31;;;;;;;8.73;5.40;;;4.00;97.60;;;;;;7726793;28;20215;-88
2023/01/17 15:52:17;;;;;;;8.93;4.40;;;4.10;97.60;;;;;;7743772;28;20195;-89
2023/01/17 15:56:30;;;;;;;8.30;4.10;;;4.00;97.90;;;;;;7743326;28;20230;-89
2023/01/17 16:00:23;;;;;;;6.37;3.90;;;4.00;98.10;;;;;;7725314;28;20220;-86
2023/01/17 16:04:31;;;;;;;6.40;3.27;;;3.90;98.20;;;;;;7725839;28;20180;-90
2023/01/17 16:08:37;;;;;;;6.57;4.20;;;3.90;98.10;;;;;;7734343;28;20210;-88
2023/01/17 16:12:23;;;;;;;8.73;4.40;;;3.90;97.70;;;;;;7744000;28;20184;-89
2023/01/17 16:16:21;;;;;;;8.50;4.60;;;3.90;97.70;;;;;;7726282;28;20215;-88
2023/01/17 16:20:33;;;;;;;11.13;2.90;;;3.80;97.80;;;;;;7711892;28;20370;-88
2023/01/17 16:24:19;;;;;;;6.67;3.80;;;3.80;97.50;;;;;;7734429;28;20653;-89
2023/01/17 16:28:05;;;;;;;6.07;3.33;;;3.70;97.60;;;;;;7730734;28;20592;-88
2023/01/17 16:31:50;;;;;;;8.17;3.00;;;3.70;97.60;;;;;;7747991;28;20246;-88
2023/01/17 16:35:38;;;;;;;4.77;2.73;;;3.70;97.60;;;;;;7749264;28;20200;-89
2023/01/17 16:39:23;;;;;;;3.73;2.63;;;3.60;97.50;;;;;;7744143;28;20237;-87
2023/01/17 16:43:12;;;;;;;5.40;3.13;;;3.60;98.40;;;;;;7732436;28;20195;-89
2023/01/17 16:47:00;;;;;;;2.73;2.30;;;3.50;98.70;;;;;;7720627;28;20232;-87
2023/01/17 16:50:49;;;;;;;5.20;3.17;;;3.50;99.10;;;;;;7736147;28;20204;-89
2023/01/17 16:54:35;;;;;;;7.87;3.50;;;3.50;99.70;;;;;;7741375;28;20220;-87
2023/01/17 16:58:20;;;;;;;8.10;4.50;;;3.40;99.70;;;;;;7725937;28;20295;-88
2023/01/17 17:02:08;;;;;;;10.97;6.00;;;3.50;99.50;;;;;;7733544;28;20213;-88
2023/01/17 17:05:55;;;;;;;6.67;4.07;;;3.30;99.20;;;;;;7725429;28;20749;-89
2023/01/17 17:09:41;;;;;;;4.50;3.20;;;3.30;99.90;;;;;;7727553;28;20557;-88
2023/01/17 17:13:27;;;;;;;6.47;3.10;;;3.30;99.90;;;;;;7732531;28;20636;-87
2023/01/17 17:17:12;;;;;;;6.70;3.37;;;3.30;99.90;;;;;;7720135;28;20215;-89
2023/01/17 17:21:00;;;;;;;9.30;5.17;;;3.20;99.90;;;;;;7732070;28;20215;-90
2023/01/17 17:24:45;;;;;;;9.90;5.30;;;3.30;99.90;;;;;;7733947;28;20192;-87
2023/01/17 17:28:31;;;;;;;7.77;4.57;;;3.20;99.90;;;;;;7742364;28;20208;-89
2023/01/17 17:32:17;;;;;;;9.03;4.40;;;3.20;99.90;;;;;;7728043;28;20243;-89
2023/01/17 17:36:05;;;;;;;8.00;5.17;;;3.20;99.90;;;;;;7747055;28;20303;-89
2023/01/17 17:39:51;;;;;;;8.57;4.77;;;3.10;99.90;;;;;;7747857;28;20234;-89
2023/01/17 17:43:39;;;;;;;8.63;5.33;;;3.10;99.90;;;;;;7734098;28;20197;-88
2023/01/17 17:47:24;;;;;;;9.40;4.80;;;3.10;99.90;;;;;;7741913;23;20232;-87
2023/01/17 17:51:39;;;;;;;7.10;3.67;;;3.10;99.90;;;;;;7718446;28;20693;-89
2023/01/17 17:55:25;;;;;;;6.03;3.60;;;3.00;99.90;;;;;;7626298;29;20187;-88
2023/01/17 17:59:13;;;;;;;4.63;2.83;;;3.00;99.90;;;;;;7609400;29;20323;-87
2023/01/17 18:02:59;;;;;;;4.87;2.53;;;2.90;99.90;;;;;;7610077;29;20214;-87
2023/01/17 18:06:44;;;;;;;4.70;2.87;;;2.90;99.90;;;;;;7608837;29;20194;-87
2023/01/17 18:10:30;;;;;;;5.00;2.93;;;2.80;99.90;;;;;;7591285;29;20200;-88
2023/01/17 18:14:19;;;;;;;4.67;2.57;;;2.90;99.90;;;;;;7591131;29;20214;-87
2023/01/17 18:18:07;;;;;;;4.20;3.10;;;2.80;99.90;;;;;;7577766;29;20286;-88
2023/01/17 18:21:53;;;;;;;5.77;4.00;;;2.90;99.90;;;;;;7579476;29;20230;-88
2023/01/17 18:25:41;;;;;;;8.10;4.73;;;2.80;99.90;;;;;;7597193;29;20226;-87
2023/01/17 18:29:27;;;;;;;9.67;5.20;;;2.80;99.90;;;;;;7565581;29;20590;-87
2023/01/17 18:33:13;;;;;;;8.63;5.40;;;2.70;99.90;;;;;;7673038;28;20307;-88
2023/01/17 18:36:58;;;;;;;12.20;6.47;;;2.70;99.90;;;;;;7656679;29;20201;-88
2023/01/17 18:40:44;;;;;;;12.90;6.33;;;2.60;99.90;;;;;;7673211;29;20312;-87
2023/01/17 18:44:29;;;;;;;10.10;6.20;;;2.70;99.90;;;;;;7709124;28;20191;-87
2023/01/17 18:48:15;;;;;;;12.00;6.63;;;2.60;99.90;;;;;;7715636;28;20196;-87
2023/01/17 18:52:02;;;;;;;13.67;7.03;;;2.70;99.90;;;;;;7715661;28;20570;-86
2023/01/17 18:55:56;;;;;;;14.47;7.67;;;2.60;99.90;;;;;;7714247;28;20185;-87
2023/01/17 18:59:43;;;;;;;13.40;7.80;;;2.50;99.90;;;;;;7708115;28;20240;-87
2023/01/17 19:03:30;;;;;;;15.47;7.97;;;2.50;99.90;;;;;;7682707;28;20295;-88
2023/01/17 19:07:16;;;;;;;18.83;9.50;;;2.50;99.90;;;;;;7690545;28;20189;-88
2023/01/17 19:11:03;;;;;;;20.70;9.57;;;2.50;99.90;;;;;;7694332;28;20264;-87
2023/01/17 19:14:48;;;;;;;21.90;12.97;;;2.50;99.90;;;;;;7684404;28;20241;-87
2023/01/17 19:18:34;;;;;;;17.43;10.43;;;2.40;99.90;;;;;;7671353;29;20190;-87
2023/01/17 19:22:20;;;;;;;18.47;9.70;;;2.40;99.90;;;;;;7666968;28;20221;-87
2023/01/17 19:26:07;;;;;;;19.23;9.77;;;2.40;99.90;;;;;;7672719;29;20191;-88
2023/01/17 19:29:52;;;;;;;17.87;9.70;;;2.40;99.90;;;;;;7681706;29;20193;-87
2023/01/17 19:33:40;;;;;;;17.13;9.93;;;2.40;99.90;;;;;;7694223;28;20217;-88
2023/01/17 19:37:26;;;;;;;15.60;8.40;;;2.40;99.90;;;;;;7714659;28;20188;-87
2023/01/17 19:41:22;;;;;;;15.47;8.43;;;2.40;99.90;;;;;;7715509;28;20228;-88
2023/01/17 19:45:09;;;;;;;14.13;8.47;;;2.30;99.90;;;;;;7714856;28;20176;-87
2023/01/17 19:48:56;;;;;;;15.33;8.23;;;2.20;99.90;;;;;;7706130;28;20204;-88
2023/01/17 19:52:41;;;;;;;15.60;8.07;;;2.20;99.90;;;;;;7715607;28;20560;-88
2023/01/17 19:56:28;;;;;;;12.47;7.30;;;2.20;99.90;;;;;;7663443;29;20189;-87
2023/01/17 20:00:15;;;;;;;13.60;7.20;;;2.20;99.90;;;;;;7676159;28;20212;-86
2023/01/17 20:04:02;;;;;;;12.47;6.37;;;2.20;99.90;;;;;;7712956;28;20204;-88
2023/01/17 20:07:47;;;;;;;12.07;6.77;;;2.10;99.90;;;;;;7714131;28;20192;-88
2023/01/17 20:11:33;;;;;;;12.30;6.93;;;2.10;99.90;;;;;;7689431;28;20220;-87
2023/01/17 20:15:19;;;;;;;13.10;6.50;;;2.10;99.90;;;;;;7690143;29;20252;-87
2023/01/17 20:19:05;;;;;;;15.50;8.50;;;2.10;99.90;;;;;;7701765;28;20248;-87
2023/01/17 20:22:50;;;;;;;20.43;11.33;;;2.00;99.90;;;;;;7720512;28;20224;-87
2023/01/17 20:26:36;;;;;;;17.80;8.37;;;2.00;99.90;;;;;;7720380;28;20591;-87
2023/01/17 20:30:25;;;;;;;12.90;7.77;;;2.00;99.90;;;;;;7721922;28;20756;-88
2023/01/17 20:34:12;;;;;;;16.33;7.47;;;2.00;99.90;;;;;;7719867;28;20716;-88
2023/01/17 20:37:57;;;;;;;13.60;7.67;;;2.00;99.90;;;;;;7707467;28;20684;-87
2023/01/17 20:41:48;;;;;;;14.70;8.50;;;1.90;99.90;;;;;;7717140;28;20583;-88
2023/01/17 20:45:33;;;;;;;13.67;7.40;;;1.90;99.90;;;;;;7720685;28;20524;-87
2023/01/17 20:49:20;;;;;;;15.17;7.87;;;1.90;99.90;;;;;;7719679;28;20212;-88
2023/01/17 20:53:12;;;;;;;12.93;7.77;;;1.90;99.90;;;;;;7720389;28;20706;-88
2023/01/17 20:56:57;;;;;;;14.67;7.90;;;1.80;99.90;;;;;;7710646;28;20224;-87
2023/01/17 21:00:43;;;;;;;12.83;8.03;;;1.80;99.90;;;;;;7690938;28;20213;-87
2023/01/17 21:04:30;;;;;;;16.13;8.40;;;1.80;99.90;;;;;;7720821;28;20272;-88
2023/01/17 21:08:16;;;;;;;15.10;8.80;;;1.80;99.90;;;;;;7719445;28;20181;-87
2023/01/17 21:12:01;;;;;;;16.73;9.30;;;1.70;99.90;;;;;;7668024;28;20218;-89
2023/01/17 21:15:48;;;;;;;13.63;7.63;;;1.70;99.90;;;;;;7689709;28;20255;-87
2023/01/17 21:19:35;;;;;;;14.30;7.80;;;1.70;99.90;;;;;;7715276;28;20590;-87
2023/01/17 21:23:25;;;;;;;13.03;7.60;;;1.60;99.90;;;;;;7696893;28;20213;-87
2023/01/17 21:27:11;;;;;;;12.47;7.13;;;1.50;99.90;;;;;;7686445;29;20337;-88
2023/01/17 21:30:57;;;;;;;11.17;6.50;;;1.50;99.90;;;;;;7686168;29;20232;-87
2023/01/17 21:34:43;;;;;;;13.07;6.57;;;1.50;99.90;;;;;;7687780;29;20201;-89
2023/01/17 21:38:30;;;;;;;11.73;6.00;;;1.50;99.90;;;;;;7687087;29;20195;-88
2023/01/17 21:42:16;;;;;;;11.00;6.10;;;1.60;99.90;;;;;;7743383;23;20261;-91
2023/01/17 21:46:04;;;;;;;10.93;5.90;;;1.50;99.90;;;;;;7771488;28;20266;-91
2023/01/17 21:49:49;;;;;;;9.13;5.73;;;1.50;99.90;;;;;;7745549;28;20593;-91
2023/01/17 21:53:36;;;;;;;9.57;5.90;;;1.50;99.90;;;;;;7745831;28;20606;-90
2023/01/17 22:01:28;;;;;;;10.27;5.23;;;1.40;99.90;;;;;;7684283;28;20225;-90
2023/01/17 22:05:15;;;;;;;9.43;4.83;;;1.50;99.90;;;;;;7686183;28;20204;-90
2023/01/17 22:09:02;;;;;;;9.13;5.13;;;1.30;99.90;;;;;;7700747;28;20655;-89
2023/01/17 22:12:50;;;;;;;9.50;5.10;;;1.40;99.90;;;;;;7701410;28;20308;-90
2023/01/17 22:16:36;;;;;;;11.20;5.83;;;1.30;99.90;;;;;;7700764;28;20567;-89
2023/01/17 22:20:21;;;;;;;7.63;4.73;;;1.20;99.90;;;;;;7701671;28;20252;-90
2023/01/17 22:24:08;;;;;;;7.97;4.90;;;1.30;99.90;;;;;;7686283;28;20224;-89
2023/01/17 22:27:53;;;;;;;10.17;5.67;;;1.20;99.90;;;;;;7685237;28;20181;-89
2023/01/17 22:31:39;;;;;;;8.57;5.33;;;1.20;99.90;;;;;;7700391;28;20705;-89
2023/01/17 22:35:25;;;;;;;7.30;5.10;;;1.20;99.90;;;;;;7684531;28;20237;-90
2023/01/17 22:39:10;;;;;;;11.17;5.60;;;1.20;99.90;;;;;;7699945;28;20643;-90
2023/01/17 22:42:56;;;;;;;9.30;5.63;;;1.10;99.90;;;;;;7700587;28;20252;-89
2023/01/17 22:46:42;;;;;;;8.53;5.37;;;1.10;99.90;;;;;;7699655;28;20671;-90
2023/01/17 22:50:27;;;;;;;8.93;5.33;;;1.10;99.90;;;;;;7700135;28;20192;-89
2023/01/17 22:54:13;;;;;;;10.53;5.33;;;1.10;99.90;;;;;;7683570;28;20342;-90
2023/01/17 22:57:59;;;;;;;8.63;4.87;;;1.10;99.90;;;;;;7699491;28;20209;-90
2023/01/17 23:01:45;;;;;;;9.40;5.10;;;1.10;99.90;;;;;;7699730;28;20225;-89
2023/01/17 23:05:30;;;;;;;8.23;5.17;;;1.10;99.90;;;;;;7684844;28;20273;-89
2023/01/17 23:09:16;;;;;;;7.93;4.90;;;1.10;99.90;;;;;;7683256;29;20249;-89
2023/01/17 23:13:02;;;;;;;10.93;5.17;;;1.10;99.90;;;;;;7683590;28;20217;-89
2023/01/17 23:21:07;;;;;;;7.90;4.80;;;1.00;99.90;;;;;;7684831;28;20646;-90
2023/01/17 23:25:13;;;;;;;8.90;4.30;;;1.00;99.90;;;;;;7699248;28;20200;-90
2023/01/17 23:28:58;;;;;;;7.07;4.47;;;1.00;99.90;;;;;;7698866;28;20211;-90
2023/01/17 23:32:55;;;;;;;10.53;4.87;;;1.00;99.90;;;;;;7699285;28;20209;-89
2023/01/17 23:36:40;;;;;;;11.27;4.40;;;1.00;99.90;;;;;;7698509;28;20192;-89
2023/01/17 23:40:26;;;;;;;9.77;5.63;;;1.00;99.90;;;;;;7700975;28;20217;-88
2023/01/17 23:44:12;;;;;;;8.60;4.90;;;1.00;99.90;;;;;;7705640;28;20214;-89
2023/01/17 23:47:58;;;;;;;7.67;4.13;;;1.00;99.90;;;;;;7705394;28;20188;-89
2023/01/17 23:51:43;;;;;;;7.37;4.50;;;1.00;99.90;;;;;;7689125;28;20209;-90
2023/01/17 23:55:29;;;;;;;7.93;4.60;;;1.00;99.90;;;;;;7704795;28;20618;-89
2023/01/17 23:59:15;;;;;;;7.67;4.77;;;1.00;99.90;;;;;;7704587;28;20193;-90
